sensor_id;sensor_type;location;lat;lon;timestamp;P1;durP1;ratioP1;P2;durP2;ratioP2
78925;SDS011;68321;51.276;7.208;2023-04-25T00:02:20;10.27;;;3.38;;
78925;SDS011;68321;51.276;7.208;2023-04-25T00:04:45;10.40;;;4.22;;
78925;SDS011;68321;51.276;7.208;2023-04-25T00:07:11;12.10;;;4.65;;
78925;SDS011;68321;51.276;7.208;2023-04-25T00:09:36;5.90;;;2.70;;
78925;SDS011;68321;51.276;7.208;2023-04-25T00:12:02;12.93;;;3.80;;
78925;SDS011;68321;51.276;7.208;2023-04-25T00:14:28;9.45;;;4.18;;
78925;SDS011;68321;51.276;7.208;2023-04-25T00:16:54;7.57;;;4.18;;
78925;SDS011;68321;51.276;7.208;2023-04-25T00:19:19;13.88;;;3.72;;
78925;SDS011;68321;51.276;7.208;2023-04-25T00:21:45;17.37;;;4.57;;
78925;SDS011;68321;51.276;7.208;2023-04-25T00:24:11;11.75;;;4.07;;
78925;SDS011;68321;51.276;7.208;2023-04-25T00:26:37;11.80;;;4.68;;
78925;SDS011;68321;51.276;7.208;2023-04-25T00:29:02;7.13;;;2.80;;
78925;SDS011;68321;51.276;7.208;2023-04-25T00:31:28;8.20;;;3.78;;
78925;SDS011;68321;51.276;7.208;2023-04-25T00:33:54;7.90;;;3.22;;
78925;SDS011;68321;51.276;7.208;2023-04-25T00:36:19;3.22;;;2.15;;
78925;SDS011;68321;51.276;7.208;2023-04-25T00:38:44;8.10;;;3.15;;
78925;SDS011;68321;51.276;7.208;2023-04-25T00:41:10;14.80;;;3.50;;
78925;SDS011;68321;51.276;7.208;2023-04-25T00:43:36;7.07;;;3.30;;
78925;SDS011;68321;51.276;7.208;2023-04-25T00:46:01;8.00;;;3.88;;
78925;SDS011;68321;51.276;7.208;2023-04-25T00:48:27;7.05;;;3.58;;
78925;SDS011;68321;51.276;7.208;2023-04-25T00:50:53;11.82;;;3.35;;
78925;SDS011;68321;51.276;7.208;2023-04-25T00:53:19;9.23;;;3.45;;
78925;SDS011;68321;51.276;7.208;2023-04-25T00:55:49;9.60;;;3.38;;
78925;SDS011;68321;51.276;7.208;2023-04-25T00:58:16;11.27;;;3.95;;
78925;SDS011;68321;51.276;7.208;2023-04-25T01:00:48;6.93;;;3.30;;
78925;SDS011;68321;51.276;7.208;2023-04-25T01:03:15;7.88;;;3.22;;
78925;SDS011;68321;51.276;7.208;2023-04-25T01:05:41;6.57;;;3.15;;
78925;SDS011;68321;51.276;7.208;2023-04-25T01:08:07;9.02;;;4.07;;
78925;SDS011;68321;51.276;7.208;2023-04-25T01:10:32;6.25;;;3.80;;
78925;SDS011;68321;51.276;7.208;2023-04-25T01:12:57;7.95;;;3.30;;
78925;SDS011;68321;51.276;7.208;2023-04-25T01:15:23;7.33;;;4.10;;
78925;SDS011;68321;51.276;7.208;2023-04-25T01:17:48;11.07;;;3.50;;
78925;SDS011;68321;51.276;7.208;2023-04-25T01:20:14;8.00;;;3.90;;
78925;SDS011;68321;51.276;7.208;2023-04-25T01:22:40;12.13;;;2.65;;
78925;SDS011;68321;51.276;7.208;2023-04-25T01:25:05;6.90;;;3.35;;
78925;SDS011;68321;51.276;7.208;2023-04-25T01:27:32;7.20;;;2.70;;
78925;SDS011;68321;51.276;7.208;2023-04-25T01:29:57;7.32;;;2.95;;
78925;SDS011;68321;51.276;7.208;2023-04-25T01:32:23;12.48;;;3.13;;
78925;SDS011;68321;51.276;7.208;2023-04-25T01:34:48;8.50;;;3.30;;
78925;SDS011;68321;51.276;7.208;2023-04-25T01:37:14;8.88;;;3.80;;
78925;SDS011;68321;51.276;7.208;2023-04-25T01:39:39;10.55;;;2.95;;
78925;SDS011;68321;51.276;7.208;2023-04-25T01:42:05;6.65;;;3.13;;
78925;SDS011;68321;51.276;7.208;2023-04-25T01:44:31;8.52;;;2.88;;
78925;SDS011;68321;51.276;7.208;2023-04-25T01:46:56;10.15;;;2.60;;
78925;SDS011;68321;51.276;7.208;2023-04-25T01:49:22;9.77;;;3.55;;
78925;SDS011;68321;51.276;7.208;2023-04-25T01:51:47;9.50;;;3.47;;
78925;SDS011;68321;51.276;7.208;2023-04-25T01:54:13;7.00;;;4.18;;
78925;SDS011;68321;51.276;7.208;2023-04-25T01:56:38;8.02;;;3.05;;
78925;SDS011;68321;51.276;7.208;2023-04-25T01:59:04;4.30;;;2.22;;
78925;SDS011;68321;51.276;7.208;2023-04-25T02:01:30;7.90;;;4.00;;
78925;SDS011;68321;51.276;7.208;2023-04-25T02:03:55;6.57;;;3.33;;
78925;SDS011;68321;51.276;7.208;2023-04-25T02:06:21;8.73;;;3.80;;
78925;SDS011;68321;51.276;7.208;2023-04-25T02:08:46;9.60;;;3.95;;
78925;SDS011;68321;51.276;7.208;2023-04-25T02:11:11;5.57;;;3.80;;
78925;SDS011;68321;51.276;7.208;2023-04-25T02:13:37;8.63;;;3.80;;
78925;SDS011;68321;51.276;7.208;2023-04-25T02:16:02;13.20;;;5.63;;
78925;SDS011;68321;51.276;7.208;2023-04-25T02:18:28;8.50;;;4.57;;
78925;SDS011;68321;51.276;7.208;2023-04-25T02:20:53;12.18;;;3.50;;
78925;SDS011;68321;51.276;7.208;2023-04-25T02:23:18;11.68;;;3.72;;
78925;SDS011;68321;51.276;7.208;2023-04-25T02:25:44;10.60;;;4.30;;
78925;SDS011;68321;51.276;7.208;2023-04-25T02:28:09;9.02;;;3.90;;
78925;SDS011;68321;51.276;7.208;2023-04-25T02:30:35;8.77;;;4.03;;
78925;SDS011;68321;51.276;7.208;2023-04-25T02:33:01;9.15;;;4.25;;
78925;SDS011;68321;51.276;7.208;2023-04-25T02:35:26;8.77;;;4.93;;
78925;SDS011;68321;51.276;7.208;2023-04-25T02:37:51;8.32;;;4.13;;
78925;SDS011;68321;51.276;7.208;2023-04-25T02:40:17;9.68;;;4.63;;
78925;SDS011;68321;51.276;7.208;2023-04-25T02:42:42;11.03;;;6.27;;
78925;SDS011;68321;51.276;7.208;2023-04-25T02:45:07;14.98;;;5.55;;
78925;SDS011;68321;51.276;7.208;2023-04-25T02:47:33;10.07;;;5.10;;
78925;SDS011;68321;51.276;7.208;2023-04-25T02:49:58;12.53;;;6.67;;
78925;SDS011;68321;51.276;7.208;2023-04-25T02:52:24;11.45;;;6.40;;
78925;SDS011;68321;51.276;7.208;2023-04-25T02:54:50;13.20;;;6.25;;
78925;SDS011;68321;51.276;7.208;2023-04-25T02:57:15;11.70;;;5.68;;
78925;SDS011;68321;51.276;7.208;2023-04-25T02:59:41;11.48;;;5.22;;
78925;SDS011;68321;51.276;7.208;2023-04-25T03:02:06;13.00;;;6.00;;
78925;SDS011;68321;51.276;7.208;2023-04-25T03:04:31;8.13;;;4.43;;
78925;SDS011;68321;51.276;7.208;2023-04-25T03:06:58;12.38;;;5.75;;
78925;SDS011;68321;51.276;7.208;2023-04-25T03:09:23;12.70;;;5.38;;
78925;SDS011;68321;51.276;7.208;2023-04-25T03:11:49;16.48;;;6.13;;
78925;SDS011;68321;51.276;7.208;2023-04-25T03:14:14;14.73;;;5.82;;
78925;SDS011;68321;51.276;7.208;2023-04-25T03:16:40;9.15;;;4.53;;
78925;SDS011;68321;51.276;7.208;2023-04-25T03:19:05;12.10;;;6.20;;
78925;SDS011;68321;51.276;7.208;2023-04-25T03:21:32;11.93;;;7.13;;
78925;SDS011;68321;51.276;7.208;2023-04-25T03:23:58;7.53;;;4.50;;
78925;SDS011;68321;51.276;7.208;2023-04-25T03:26:24;14.13;;;6.30;;
78925;SDS011;68321;51.276;7.208;2023-04-25T03:28:49;9.85;;;5.97;;
78925;SDS011;68321;51.276;7.208;2023-04-25T03:31:15;13.90;;;6.13;;
78925;SDS011;68321;51.276;7.208;2023-04-25T03:33:40;12.55;;;7.63;;
78925;SDS011;68321;51.276;7.208;2023-04-25T03:36:06;15.82;;;6.38;;
78925;SDS011;68321;51.276;7.208;2023-04-25T03:38:31;12.82;;;6.68;;
78925;SDS011;68321;51.276;7.208;2023-04-25T03:40:57;11.43;;;6.18;;
78925;SDS011;68321;51.276;7.208;2023-04-25T03:43:22;14.70;;;5.78;;
78925;SDS011;68321;51.276;7.208;2023-04-25T03:45:48;12.32;;;6.22;;
78925;SDS011;68321;51.276;7.208;2023-04-25T03:48:13;14.17;;;6.67;;
78925;SDS011;68321;51.276;7.208;2023-04-25T03:50:38;10.10;;;6.35;;
78925;SDS011;68321;51.276;7.208;2023-04-25T03:53:04;12.87;;;6.57;;
78925;SDS011;68321;51.276;7.208;2023-04-25T03:55:30;15.15;;;7.05;;
78925;SDS011;68321;51.276;7.208;2023-04-25T03:57:56;12.47;;;6.27;;
78925;SDS011;68321;51.276;7.208;2023-04-25T04:00:23;12.40;;;7.22;;
78925;SDS011;68321;51.276;7.208;2023-04-25T04:02:48;10.70;;;6.60;;
78925;SDS011;68321;51.276;7.208;2023-04-25T04:05:13;12.35;;;5.78;;
78925;SDS011;68321;51.276;7.208;2023-04-25T04:07:39;16.43;;;7.57;;
78925;SDS011;68321;51.276;7.208;2023-04-25T04:10:06;15.10;;;7.63;;
78925;SDS011;68321;51.276;7.208;2023-04-25T04:12:32;16.60;;;7.57;;
78925;SDS011;68321;51.276;7.208;2023-04-25T04:14:58;19.92;;;7.57;;
78925;SDS011;68321;51.276;7.208;2023-04-25T04:17:23;17.73;;;6.87;;
78925;SDS011;68321;51.276;7.208;2023-04-25T04:19:48;14.70;;;6.57;;
78925;SDS011;68321;51.276;7.208;2023-04-25T04:22:14;12.02;;;6.20;;
78925;SDS011;68321;51.276;7.208;2023-04-25T04:24:39;17.25;;;8.90;;
78925;SDS011;68321;51.276;7.208;2023-04-25T04:27:05;15.23;;;8.30;;
78925;SDS011;68321;51.276;7.208;2023-04-25T04:29:30;14.43;;;7.93;;
78925;SDS011;68321;51.276;7.208;2023-04-25T04:31:56;18.73;;;9.23;;
78925;SDS011;68321;51.276;7.208;2023-04-25T04:34:21;18.15;;;8.60;;
78925;SDS011;68321;51.276;7.208;2023-04-25T04:36:47;17.03;;;8.10;;
78925;SDS011;68321;51.276;7.208;2023-04-25T04:39:13;18.00;;;9.70;;
78925;SDS011;68321;51.276;7.208;2023-04-25T04:41:38;17.55;;;9.40;;
78925;SDS011;68321;51.276;7.208;2023-04-25T04:44:04;21.73;;;7.83;;
78925;SDS011;68321;51.276;7.208;2023-04-25T04:46:31;13.50;;;6.57;;
78925;SDS011;68321;51.276;7.208;2023-04-25T04:48:57;15.13;;;7.20;;
78925;SDS011;68321;51.276;7.208;2023-04-25T04:51:23;18.20;;;8.25;;
78925;SDS011;68321;51.276;7.208;2023-04-25T04:53:48;17.57;;;7.50;;
78925;SDS011;68321;51.276;7.208;2023-04-25T04:56:14;17.27;;;6.67;;
78925;SDS011;68321;51.276;7.208;2023-04-25T04:58:40;18.75;;;8.60;;
78925;SDS011;68321;51.276;7.208;2023-04-25T05:01:05;15.95;;;8.63;;
78925;SDS011;68321;51.276;7.208;2023-04-25T05:03:31;10.90;;;6.40;;
78925;SDS011;68321;51.276;7.208;2023-04-25T05:05:56;15.43;;;7.73;;
78925;SDS011;68321;51.276;7.208;2023-04-25T05:08:21;17.77;;;7.17;;
78925;SDS011;68321;51.276;7.208;2023-04-25T05:10:46;14.07;;;6.93;;
78925;SDS011;68321;51.276;7.208;2023-04-25T05:13:12;16.67;;;7.72;;
78925;SDS011;68321;51.276;7.208;2023-04-25T05:15:37;20.73;;;7.90;;
78925;SDS011;68321;51.276;7.208;2023-04-25T05:18:03;14.23;;;6.67;;
78925;SDS011;68321;51.276;7.208;2023-04-25T05:20:28;20.90;;;9.30;;
78925;SDS011;68321;51.276;7.208;2023-04-25T05:22:53;21.95;;;8.50;;
78925;SDS011;68321;51.276;7.208;2023-04-25T05:25:19;20.27;;;7.70;;
78925;SDS011;68321;51.276;7.208;2023-04-25T05:27:44;21.45;;;8.32;;
78925;SDS011;68321;51.276;7.208;2023-04-25T05:30:10;23.77;;;8.38;;
78925;SDS011;68321;51.276;7.208;2023-04-25T05:32:35;19.92;;;9.23;;
78925;SDS011;68321;51.276;7.208;2023-04-25T05:35:01;17.50;;;9.40;;
78925;SDS011;68321;51.276;7.208;2023-04-25T05:37:26;18.08;;;7.18;;
78925;SDS011;68321;51.276;7.208;2023-04-25T05:39:51;19.53;;;8.40;;
78925;SDS011;68321;51.276;7.208;2023-04-25T05:42:17;17.33;;;7.70;;
78925;SDS011;68321;51.276;7.208;2023-04-25T05:44:42;18.40;;;8.18;;
78925;SDS011;68321;51.276;7.208;2023-04-25T05:47:07;19.88;;;9.57;;
78925;SDS011;68321;51.276;7.208;2023-04-25T05:49:33;20.08;;;8.65;;
78925;SDS011;68321;51.276;7.208;2023-04-25T05:51:59;19.55;;;8.70;;
78925;SDS011;68321;51.276;7.208;2023-04-25T05:54:25;16.20;;;7.10;;
78925;SDS011;68321;51.276;7.208;2023-04-25T05:56:50;16.98;;;7.85;;
78925;SDS011;68321;51.276;7.208;2023-04-25T05:59:16;16.27;;;6.45;;
78925;SDS011;68321;51.276;7.208;2023-04-25T06:01:41;22.98;;;7.03;;
78925;SDS011;68321;51.276;7.208;2023-04-25T06:04:06;14.27;;;6.13;;
78925;SDS011;68321;51.276;7.208;2023-04-25T06:06:32;12.68;;;6.53;;
78925;SDS011;68321;51.276;7.208;2023-04-25T06:08:57;16.33;;;7.28;;
78925;SDS011;68321;51.276;7.208;2023-04-25T06:11:23;13.75;;;6.28;;
78925;SDS011;68321;51.276;7.208;2023-04-25T06:13:48;20.25;;;6.13;;
78925;SDS011;68321;51.276;7.208;2023-04-25T06:16:13;16.83;;;6.30;;
78925;SDS011;68321;51.276;7.208;2023-04-25T06:18:39;14.07;;;6.40;;
78925;SDS011;68321;51.276;7.208;2023-04-25T06:21:04;23.27;;;6.27;;
78925;SDS011;68321;51.276;7.208;2023-04-25T06:23:30;14.70;;;5.43;;
78925;SDS011;68321;51.276;7.208;2023-04-25T06:25:55;13.33;;;5.23;;
78925;SDS011;68321;51.276;7.208;2023-04-25T06:28:20;17.23;;;6.00;;
78925;SDS011;68321;51.276;7.208;2023-04-25T06:30:47;12.60;;;5.45;;
78925;SDS011;68321;51.276;7.208;2023-04-25T06:33:12;11.75;;;4.80;;
78925;SDS011;68321;51.276;7.208;2023-04-25T06:35:37;14.47;;;5.43;;
78925;SDS011;68321;51.276;7.208;2023-04-25T06:38:03;13.20;;;5.75;;
78925;SDS011;68321;51.276;7.208;2023-04-25T06:40:28;13.65;;;5.70;;
78925;SDS011;68321;51.276;7.208;2023-04-25T06:42:53;16.40;;;4.33;;
78925;SDS011;68321;51.276;7.208;2023-04-25T06:45:19;15.63;;;5.13;;
78925;SDS011;68321;51.276;7.208;2023-04-25T06:47:44;15.40;;;6.22;;
78925;SDS011;68321;51.276;7.208;2023-04-25T06:50:10;7.22;;;3.75;;
78925;SDS011;68321;51.276;7.208;2023-04-25T06:52:35;13.70;;;5.45;;
78925;SDS011;68321;51.276;7.208;2023-04-25T06:55:01;11.68;;;4.30;;
78925;SDS011;68321;51.276;7.208;2023-04-25T06:57:26;12.63;;;4.60;;
78925;SDS011;68321;51.276;7.208;2023-04-25T06:59:52;12.48;;;4.05;;
78925;SDS011;68321;51.276;7.208;2023-04-25T07:02:17;8.50;;;4.17;;
78925;SDS011;68321;51.276;7.208;2023-04-25T07:04:42;7.37;;;4.07;;
78925;SDS011;68321;51.276;7.208;2023-04-25T07:07:07;12.37;;;4.33;;
78925;SDS011;68321;51.276;7.208;2023-04-25T07:09:33;9.93;;;4.27;;
78925;SDS011;68321;51.276;7.208;2023-04-25T07:11:59;11.02;;;3.90;;
78925;SDS011;68321;51.276;7.208;2023-04-25T07:14:26;8.98;;;4.40;;
78925;SDS011;68321;51.276;7.208;2023-04-25T07:16:51;10.60;;;4.43;;
78925;SDS011;68321;51.276;7.208;2023-04-25T07:19:16;13.77;;;4.28;;
78925;SDS011;68321;51.276;7.208;2023-04-25T07:21:42;12.13;;;4.30;;
78925;SDS011;68321;51.276;7.208;2023-04-25T07:24:07;11.03;;;4.37;;
78925;SDS011;68321;51.276;7.208;2023-04-25T07:26:32;12.60;;;6.38;;
78925;SDS011;68321;51.276;7.208;2023-04-25T07:28:58;10.63;;;3.95;;
78925;SDS011;68321;51.276;7.208;2023-04-25T07:31:23;9.67;;;4.30;;
78925;SDS011;68321;51.276;7.208;2023-04-25T07:33:49;9.77;;;3.78;;
78925;SDS011;68321;51.276;7.208;2023-04-25T07:36:14;9.73;;;4.37;;
78925;SDS011;68321;51.276;7.208;2023-04-25T07:38:40;11.20;;;4.35;;
78925;SDS011;68321;51.276;7.208;2023-04-25T07:41:06;12.05;;;4.60;;
78925;SDS011;68321;51.276;7.208;2023-04-25T07:43:31;10.68;;;4.18;;
78925;SDS011;68321;51.276;7.208;2023-04-25T07:45:56;10.47;;;3.77;;
78925;SDS011;68321;51.276;7.208;2023-04-25T07:48:22;10.75;;;4.32;;
78925;SDS011;68321;51.276;7.208;2023-04-25T07:50:47;7.50;;;3.40;;
78925;SDS011;68321;51.276;7.208;2023-04-25T07:53:13;12.82;;;4.57;;
78925;SDS011;68321;51.276;7.208;2023-04-25T07:55:38;6.68;;;3.15;;
78925;SDS011;68321;51.276;7.208;2023-04-25T07:58:08;13.05;;;3.65;;
78925;SDS011;68321;51.276;7.208;2023-04-25T08:00:34;6.57;;;3.17;;
78925;SDS011;68321;51.276;7.208;2023-04-25T08:03:06;16.38;;;4.22;;
78925;SDS011;68321;51.276;7.208;2023-04-25T08:05:32;11.55;;;2.65;;
78925;SDS011;68321;51.276;7.208;2023-04-25T08:07:57;10.50;;;3.47;;
78925;SDS011;68321;51.276;7.208;2023-04-25T08:10:23;9.25;;;2.42;;
78925;SDS011;68321;51.276;7.208;2023-04-25T08:12:48;8.15;;;2.67;;
78925;SDS011;68321;51.276;7.208;2023-04-25T08:15:14;14.90;;;4.53;;
78925;SDS011;68321;51.276;7.208;2023-04-25T08:17:39;9.88;;;3.30;;
78925;SDS011;68321;51.276;7.208;2023-04-25T08:20:05;9.48;;;3.75;;
78925;SDS011;68321;51.276;7.208;2023-04-25T08:22:31;14.10;;;4.38;;
78925;SDS011;68321;51.276;7.208;2023-04-25T08:24:56;6.78;;;2.70;;
78925;SDS011;68321;51.276;7.208;2023-04-25T08:27:22;10.73;;;3.00;;
78925;SDS011;68321;51.276;7.208;2023-04-25T08:29:47;11.73;;;4.50;;
78925;SDS011;68321;51.276;7.208;2023-04-25T08:32:12;8.70;;;3.15;;
78925;SDS011;68321;51.276;7.208;2023-04-25T08:34:38;4.87;;;2.40;;
78925;SDS011;68321;51.276;7.208;2023-04-25T08:37:07;6.40;;;2.58;;
78925;SDS011;68321;51.276;7.208;2023-04-25T08:39:33;8.05;;;2.38;;
78925;SDS011;68321;51.276;7.208;2023-04-25T08:41:58;8.43;;;2.60;;
78925;SDS011;68321;51.276;7.208;2023-04-25T08:44:25;8.93;;;2.50;;
78925;SDS011;68321;51.276;7.208;2023-04-25T08:46:52;7.40;;;2.28;;
78925;SDS011;68321;51.276;7.208;2023-04-25T08:49:17;7.63;;;2.42;;
78925;SDS011;68321;51.276;7.208;2023-04-25T08:51:44;8.18;;;2.92;;
78925;SDS011;68321;51.276;7.208;2023-04-25T08:54:12;6.18;;;2.10;;
78925;SDS011;68321;51.276;7.208;2023-04-25T08:56:39;9.25;;;2.60;;
78925;SDS011;68321;51.276;7.208;2023-04-25T08:59:06;6.75;;;2.88;;
78925;SDS011;68321;51.276;7.208;2023-04-25T09:01:33;4.82;;;2.03;;
78925;SDS011;68321;51.276;7.208;2023-04-25T09:04:00;8.90;;;2.70;;
78925;SDS011;68321;51.276;7.208;2023-04-25T09:06:25;3.87;;;1.97;;
78925;SDS011;68321;51.276;7.208;2023-04-25T09:08:51;10.50;;;2.53;;
78925;SDS011;68321;51.276;7.208;2023-04-25T09:11:16;6.68;;;2.67;;
78925;SDS011;68321;51.276;7.208;2023-04-25T09:13:42;7.35;;;2.50;;
78925;SDS011;68321;51.276;7.208;2023-04-25T09:16:07;4.70;;;2.25;;
78925;SDS011;68321;51.276;7.208;2023-04-25T09:18:33;4.37;;;1.70;;
78925;SDS011;68321;51.276;7.208;2023-04-25T09:26:08;5.63;;;2.45;;
78925;SDS011;68321;51.276;7.208;2023-04-25T09:28:34;4.32;;;1.88;;
78925;SDS011;68321;51.276;7.208;2023-04-25T09:31:00;8.88;;;2.53;;
78925;SDS011;68321;51.276;7.208;2023-04-25T09:33:33;4.45;;;1.63;;
78925;SDS011;68321;51.276;7.208;2023-04-25T09:36:04;5.28;;;1.70;;
78925;SDS011;68321;51.276;7.208;2023-04-25T09:38:32;8.75;;;2.47;;
78925;SDS011;68321;51.276;7.208;2023-04-25T09:41:08;8.18;;;2.33;;
78925;SDS011;68321;51.276;7.208;2023-04-25T09:43:35;2.78;;;1.83;;
78925;SDS011;68321;51.276;7.208;2023-04-25T09:46:00;6.80;;;2.05;;
78925;SDS011;68321;51.276;7.208;2023-04-25T09:48:26;9.20;;;2.88;;
78925;SDS011;68321;51.276;7.208;2023-04-25T09:51:26;15.20;;;6.10;;
78925;SDS011;68321;51.276;7.208;2023-04-25T09:53:45;8.48;;;2.72;;
78925;SDS011;68321;51.276;7.208;2023-04-25T09:56:12;8.18;;;2.60;;
78925;SDS011;68321;51.276;7.208;2023-04-25T09:58:38;5.82;;;2.63;;
78925;SDS011;68321;51.276;7.208;2023-04-25T10:01:05;8.70;;;2.30;;
78925;SDS011;68321;51.276;7.208;2023-04-25T10:03:36;6.45;;;2.17;;
78925;SDS011;68321;51.276;7.208;2023-04-25T10:06:07;7.78;;;2.08;;
78925;SDS011;68321;51.276;7.208;2023-04-25T10:08:34;6.20;;;1.92;;
78925;SDS011;68321;51.276;7.208;2023-04-25T10:11:03;5.13;;;2.00;;
78925;SDS011;68321;51.276;7.208;2023-04-25T10:13:29;7.90;;;2.55;;
78925;SDS011;68321;51.276;7.208;2023-04-25T10:15:59;5.88;;;1.98;;
78925;SDS011;68321;51.276;7.208;2023-04-25T10:18:26;8.57;;;2.50;;
78925;SDS011;68321;51.276;7.208;2023-04-25T10:20:53;6.43;;;2.47;;
78925;SDS011;68321;51.276;7.208;2023-04-25T10:23:20;3.97;;;1.75;;
78925;SDS011;68321;51.276;7.208;2023-04-25T10:25:45;5.20;;;2.75;;
78925;SDS011;68321;51.276;7.208;2023-04-25T10:28:11;6.47;;;2.28;;
78925;SDS011;68321;51.276;7.208;2023-04-25T10:30:36;5.43;;;1.70;;
78925;SDS011;68321;51.276;7.208;2023-04-25T10:33:01;8.43;;;2.05;;
78925;SDS011;68321;51.276;7.208;2023-04-25T10:35:28;7.72;;;3.53;;
78925;SDS011;68321;51.276;7.208;2023-04-25T10:40:30;12.48;;;2.78;;
78925;SDS011;68321;51.276;7.208;2023-04-25T10:48:38;8.40;;;1.77;;
78925;SDS011;68321;51.276;7.208;2023-04-25T10:51:10;3.25;;;1.63;;
78925;SDS011;68321;51.276;7.208;2023-04-25T10:53:36;6.22;;;2.25;;
78925;SDS011;68321;51.276;7.208;2023-04-25T10:56:12;3.47;;;1.95;;
78925;SDS011;68321;51.276;7.208;2023-04-25T10:58:42;5.00;;;1.83;;
78925;SDS011;68321;51.276;7.208;2023-04-25T11:01:08;4.15;;;1.70;;
78925;SDS011;68321;51.276;7.208;2023-04-25T11:03:38;2.90;;;1.25;;
78925;SDS011;68321;51.276;7.208;2023-04-25T11:06:06;3.90;;;1.65;;
78925;SDS011;68321;51.276;7.208;2023-04-25T11:08:47;5.72;;;1.88;;
78925;SDS011;68321;51.276;7.208;2023-04-25T11:11:15;6.72;;;2.28;;
78925;SDS011;68321;51.276;7.208;2023-04-25T11:13:41;3.70;;;1.80;;
78925;SDS011;68321;51.276;7.208;2023-04-25T11:16:09;11.00;;;5.37;;
78925;SDS011;68321;51.276;7.208;2023-04-25T11:18:34;5.40;;;2.15;;
78925;SDS011;68321;51.276;7.208;2023-04-25T11:21:00;3.42;;;2.00;;
78925;SDS011;68321;51.276;7.208;2023-04-25T11:23:26;5.88;;;2.22;;
78925;SDS011;68321;51.276;7.208;2023-04-25T11:25:54;6.18;;;2.28;;
78925;SDS011;68321;51.276;7.208;2023-04-25T11:28:20;5.50;;;1.88;;
78925;SDS011;68321;51.276;7.208;2023-04-25T11:30:48;6.13;;;2.90;;
78925;SDS011;68321;51.276;7.208;2023-04-25T11:35:41;5.72;;;2.15;;
78925;SDS011;68321;51.276;7.208;2023-04-25T11:38:07;5.05;;;1.35;;
78925;SDS011;68321;51.276;7.208;2023-04-25T11:40:32;3.40;;;1.87;;
78925;SDS011;68321;51.276;7.208;2023-04-25T11:42:59;5.75;;;1.85;;
78925;SDS011;68321;51.276;7.208;2023-04-25T11:45:25;9.75;;;2.53;;
78925;SDS011;68321;51.276;7.208;2023-04-25T11:47:51;5.95;;;2.50;;
78925;SDS011;68321;51.276;7.208;2023-04-25T11:50:16;8.30;;;2.33;;
78925;SDS011;68321;51.276;7.208;2023-04-25T11:52:42;7.27;;;2.13;;
78925;SDS011;68321;51.276;7.208;2023-04-25T11:55:10;9.13;;;2.58;;
78925;SDS011;68321;51.276;7.208;2023-04-25T11:57:38;4.72;;;3.60;;
78925;SDS011;68321;51.276;7.208;2023-04-25T12:02:41;7.47;;;1.90;;
78925;SDS011;68321;51.276;7.208;2023-04-25T12:05:07;6.28;;;2.00;;
78925;SDS011;68321;51.276;7.208;2023-04-25T12:07:33;8.23;;;2.53;;
78925;SDS011;68321;51.276;7.208;2023-04-25T12:09:59;4.38;;;2.42;;
78925;SDS011;68321;51.276;7.208;2023-04-25T12:12:27;14.50;;;2.67;;
78925;SDS011;68321;51.276;7.208;2023-04-25T12:14:57;4.35;;;2.13;;
78925;SDS011;68321;51.276;7.208;2023-04-25T12:17:34;6.68;;;2.28;;
78925;SDS011;68321;51.276;7.208;2023-04-25T12:19:59;3.78;;;2.03;;
78925;SDS011;68321;51.276;7.208;2023-04-25T12:22:32;9.90;;;3.85;;
78925;SDS011;68321;51.276;7.208;2023-04-25T12:24:57;5.72;;;1.88;;
78925;SDS011;68321;51.276;7.208;2023-04-25T12:27:23;5.95;;;1.75;;
78925;SDS011;68321;51.276;7.208;2023-04-25T12:29:51;4.50;;;1.70;;
78925;SDS011;68321;51.276;7.208;2023-04-25T12:32:18;4.68;;;1.52;;
78925;SDS011;68321;51.276;7.208;2023-04-25T12:34:43;6.35;;;2.22;;
78925;SDS011;68321;51.276;7.208;2023-04-25T12:37:09;5.20;;;1.93;;
78925;SDS011;68321;51.276;7.208;2023-04-25T12:39:34;7.53;;;2.70;;
78925;SDS011;68321;51.276;7.208;2023-04-25T12:42:00;3.40;;;1.77;;
78925;SDS011;68321;51.276;7.208;2023-04-25T12:44:25;6.80;;;2.30;;
78925;SDS011;68321;51.276;7.208;2023-04-25T12:46:51;4.32;;;2.28;;
78925;SDS011;68321;51.276;7.208;2023-04-25T12:49:16;3.97;;;1.88;;
78925;SDS011;68321;51.276;7.208;2023-04-25T12:51:42;5.27;;;2.10;;
78925;SDS011;68321;51.276;7.208;2023-04-25T12:54:08;5.32;;;1.95;;
78925;SDS011;68321;51.276;7.208;2023-04-25T12:56:33;8.30;;;2.55;;
78925;SDS011;68321;51.276;7.208;2023-04-25T12:58:59;4.32;;;1.88;;
78925;SDS011;68321;51.276;7.208;2023-04-25T13:01:24;3.63;;;2.33;;
78925;SDS011;68321;51.276;7.208;2023-04-25T13:03:50;3.28;;;1.85;;
78925;SDS011;68321;51.276;7.208;2023-04-25T13:06:16;5.25;;;2.55;;
78925;SDS011;68321;51.276;7.208;2023-04-25T13:08:42;5.90;;;1.98;;
78925;SDS011;68321;51.276;7.208;2023-04-25T13:11:07;5.22;;;2.50;;
78925;SDS011;68321;51.276;7.208;2023-04-25T13:13:33;3.85;;;2.70;;
78925;SDS011;68321;51.276;7.208;2023-04-25T13:16:00;3.58;;;1.70;;
78925;SDS011;68321;51.276;7.208;2023-04-25T13:18:26;3.60;;;2.15;;
78925;SDS011;68321;51.276;7.208;2023-04-25T13:20:52;5.47;;;2.00;;
78925;SDS011;68321;51.276;7.208;2023-04-25T13:23:18;2.85;;;1.35;;
78925;SDS011;68321;51.276;7.208;2023-04-25T13:25:44;4.70;;;2.00;;
78925;SDS011;68321;51.276;7.208;2023-04-25T13:28:09;6.72;;;2.22;;
78925;SDS011;68321;51.276;7.208;2023-04-25T13:30:35;6.32;;;2.20;;
78925;SDS011;68321;51.276;7.208;2023-04-25T13:33:00;4.90;;;1.85;;
78925;SDS011;68321;51.276;7.208;2023-04-25T13:35:28;5.40;;;2.10;;
78925;SDS011;68321;51.276;7.208;2023-04-25T13:37:54;9.98;;;4.28;;
78925;SDS011;68321;51.276;7.208;2023-04-25T13:40:20;3.07;;;1.37;;
78925;SDS011;68321;51.276;7.208;2023-04-25T13:42:45;4.35;;;1.92;;
78925;SDS011;68321;51.276;7.208;2023-04-25T13:45:10;5.57;;;2.05;;
78925;SDS011;68321;51.276;7.208;2023-04-25T13:47:36;5.40;;;1.57;;
78925;SDS011;68321;51.276;7.208;2023-04-25T13:50:01;5.05;;;2.20;;
78925;SDS011;68321;51.276;7.208;2023-04-25T13:52:28;2.95;;;1.50;;
78925;SDS011;68321;51.276;7.208;2023-04-25T13:54:53;5.32;;;1.70;;
78925;SDS011;68321;51.276;7.208;2023-04-25T13:57:19;3.60;;;1.93;;
78925;SDS011;68321;51.276;7.208;2023-04-25T13:59:44;3.92;;;1.85;;
78925;SDS011;68321;51.276;7.208;2023-04-25T14:02:11;3.75;;;2.20;;
78925;SDS011;68321;51.276;7.208;2023-04-25T14:04:37;5.25;;;3.20;;
78925;SDS011;68321;51.276;7.208;2023-04-25T14:07:02;5.35;;;2.33;;
78925;SDS011;68321;51.276;7.208;2023-04-25T14:09:28;3.13;;;1.90;;
78925;SDS011;68321;51.276;7.208;2023-04-25T14:11:53;4.35;;;2.30;;
78925;SDS011;68321;51.276;7.208;2023-04-25T14:14:20;3.20;;;1.70;;
78925;SDS011;68321;51.276;7.208;2023-04-25T14:16:46;5.07;;;2.55;;
78925;SDS011;68321;51.276;7.208;2023-04-25T14:19:13;4.20;;;2.05;;
78925;SDS011;68321;51.276;7.208;2023-04-25T14:21:39;5.53;;;2.72;;
78925;SDS011;68321;51.276;7.208;2023-04-25T14:24:04;3.03;;;1.77;;
78925;SDS011;68321;51.276;7.208;2023-04-25T14:26:30;4.30;;;2.50;;
78925;SDS011;68321;51.276;7.208;2023-04-25T14:28:56;5.50;;;3.03;;
78925;SDS011;68321;51.276;7.208;2023-04-25T14:31:21;11.70;;;3.50;;
78925;SDS011;68321;51.276;7.208;2023-04-25T14:33:47;5.95;;;2.58;;
78925;SDS011;68321;51.276;7.208;2023-04-25T14:36:12;3.63;;;2.00;;
78925;SDS011;68321;51.276;7.208;2023-04-25T14:38:39;5.07;;;2.42;;
78925;SDS011;68321;51.276;7.208;2023-04-25T14:41:04;4.50;;;2.40;;
78925;SDS011;68321;51.276;7.208;2023-04-25T14:43:29;4.80;;;2.28;;
78925;SDS011;68321;51.276;7.208;2023-04-25T14:45:55;3.93;;;2.27;;
78925;SDS011;68321;51.276;7.208;2023-04-25T14:48:20;4.72;;;2.38;;
78925;SDS011;68321;51.276;7.208;2023-04-25T14:50:46;5.80;;;2.25;;
78925;SDS011;68321;51.276;7.208;2023-04-25T14:53:11;3.88;;;2.15;;
78925;SDS011;68321;51.276;7.208;2023-04-25T14:55:37;4.53;;;1.95;;